sensor_id;sensor_type;location;lat;lon;timestamp;temperature;humidity
20929;DHT22;21895;47.072;15.132;2022-07-21T00:00:20;17.90;99.90
20929;DHT22;21895;47.072;15.132;2022-07-21T00:02:48;17.80;99.90
20929;DHT22;21895;47.072;15.132;2022-07-21T00:05:15;17.80;99.90
20929;DHT22;21895;47.072;15.132;2022-07-21T00:07:43;17.80;99.90
20929;DHT22;21895;47.072;15.132;2022-07-21T00:10:12;17.70;99.90
20929;DHT22;21895;47.072;15.132;2022-07-21T00:12:40;17.60;99.90
20929;DHT22;21895;47.072;15.132;2022-07-21T00:15:08;17.50;99.90
20929;DHT22;21895;47.072;15.132;2022-07-21T00:17:35;17.40;99.90
20929;DHT22;21895;47.072;15.132;2022-07-21T00:20:04;17.30;99.90
20929;DHT22;21895;47.072;15.132;2022-07-21T00:22:32;17.30;99.90
20929;DHT22;21895;47.072;15.132;2022-07-21T00:24:58;17.20;99.90
20929;DHT22;21895;47.072;15.132;2022-07-21T00:27:25;17.20;99.90
20929;DHT22;21895;47.072;15.132;2022-07-21T00:29:56;17.10;99.90
20929;DHT22;21895;47.072;15.132;2022-07-21T00:32:23;17.10;99.90
20929;DHT22;21895;47.072;15.132;2022-07-21T00:34:49;17.10;99.90
20929;DHT22;21895;47.072;15.132;2022-07-21T00:37:16;17.10;99.90
20929;DHT22;21895;47.072;15.132;2022-07-21T00:39:42;17.00;99.90
20929;DHT22;21895;47.072;15.132;2022-07-21T00:42:20;17.10;99.90
20929;DHT22;21895;47.072;15.132;2022-07-21T00:44:51;17.30;99.90
20929;DHT22;21895;47.072;15.132;2022-07-21T00:47:22;17.30;99.90
20929;DHT22;21895;47.072;15.132;2022-07-21T00:49:51;17.20;99.90
20929;DHT22;21895;47.072;15.132;2022-07-21T00:52:18;17.00;99.90
20929;DHT22;21895;47.072;15.132;2022-07-21T00:54:46;17.10;99.90
20929;DHT22;21895;47.072;15.132;2022-07-21T00:57:14;17.00;99.90
20929;DHT22;21895;47.072;15.132;2022-07-21T00:59:42;17.10;99.90
20929;DHT22;21895;47.072;15.132;2022-07-21T01:02:11;17.10;99.90
20929;DHT22;21895;47.072;15.132;2022-07-21T01:04:38;16.90;99.90
20929;DHT22;21895;47.072;15.132;2022-07-21T01:07:05;17.00;99.90
20929;DHT22;21895;47.072;15.132;2022-07-21T01:09:34;17.00;99.90
20929;DHT22;21895;47.072;15.132;2022-07-21T01:12:02;17.10;99.90
20929;DHT22;21895;47.072;15.132;2022-07-21T01:14:29;17.00;99.90
20929;DHT22;21895;47.072;15.132;2022-07-21T01:16:55;16.90;99.90
20929;DHT22;21895;47.072;15.132;2022-07-21T01:19:22;16.90;99.90
20929;DHT22;21895;47.072;15.132;2022-07-21T01:21:49;16.90;99.90
20929;DHT22;21895;47.072;15.132;2022-07-21T01:24:17;16.80;99.90
20929;DHT22;21895;47.072;15.132;2022-07-21T01:26:46;16.80;99.90
20929;DHT22;21895;47.072;15.132;2022-07-21T01:29:16;16.80;99.90
20929;DHT22;21895;47.072;15.132;2022-07-21T01:31:45;16.80;99.90
20929;DHT22;21895;47.072;15.132;2022-07-21T01:34:13;16.90;99.90
20929;DHT22;21895;47.072;15.132;2022-07-21T01:36:40;16.80;99.90
20929;DHT22;21895;47.072;15.132;2022-07-21T01:39:07;16.80;99.90
20929;DHT22;21895;47.072;15.132;2022-07-21T01:41:52;16.70;99.90
20929;DHT22;21895;47.072;15.132;2022-07-21T01:44:18;16.70;99.90
20929;DHT22;21895;47.072;15.132;2022-07-21T01:46:47;16.80;99.90
20929;DHT22;21895;47.072;15.132;2022-07-21T01:49:18;16.80;99.90
20929;DHT22;21895;47.072;15.132;2022-07-21T01:51:47;16.70;99.90
20929;DHT22;21895;47.072;15.132;2022-07-21T01:54:14;16.50;99.90
20929;DHT22;21895;47.072;15.132;2022-07-21T01:56:48;16.60;99.90
20929;DHT22;21895;47.072;15.132;2022-07-21T01:59:15;16.70;99.90
20929;DHT22;21895;47.072;15.132;2022-07-21T02:01:41;16.70;99.90
20929;DHT22;21895;47.072;15.132;2022-07-21T02:04:11;16.60;99.90
20929;DHT22;21895;47.072;15.132;2022-07-21T02:06:38;16.50;99.90
20929;DHT22;21895;47.072;15.132;2022-07-21T02:09:04;16.50;99.90
20929;DHT22;21895;47.072;15.132;2022-07-21T02:11:32;16.50;99.90
20929;DHT22;21895;47.072;15.132;2022-07-21T02:13:59;16.50;99.90
20929;DHT22;21895;47.072;15.132;2022-07-21T02:16:28;16.60;99.90
20929;DHT22;21895;47.072;15.132;2022-07-21T02:18:55;17.00;99.90
20929;DHT22;21895;47.072;15.132;2022-07-21T02:21:24;17.10;99.90
20929;DHT22;21895;47.072;15.132;2022-07-21T02:23:52;17.30;99.90
20929;DHT22;21895;47.072;15.132;2022-07-21T02:26:18;17.40;99.90
20929;DHT22;21895;47.072;15.132;2022-07-21T02:28:45;17.50;99.90
20929;DHT22;21895;47.072;15.132;2022-07-21T02:31:12;17.50;99.90
20929;DHT22;21895;47.072;15.132;2022-07-21T02:33:38;17.30;99.90
20929;DHT22;21895;47.072;15.132;2022-07-21T02:36:05;17.20;99.90
20929;DHT22;21895;47.072;15.132;2022-07-21T02:38:32;17.10;99.90
20929;DHT22;21895;47.072;15.132;2022-07-21T02:41:02;16.80;99.90
20929;DHT22;21895;47.072;15.132;2022-07-21T02:43:29;16.70;99.90
20929;DHT22;21895;47.072;15.132;2022-07-21T02:45:56;16.60;99.90
20929;DHT22;21895;47.072;15.132;2022-07-21T02:48:23;16.50;99.90
20929;DHT22;21895;47.072;15.132;2022-07-21T02:50:50;16.60;99.90
20929;DHT22;21895;47.072;15.132;2022-07-21T02:53:18;16.50;99.90
20929;DHT22;21895;47.072;15.132;2022-07-21T02:55:50;16.60;99.90
20929;DHT22;21895;47.072;15.132;2022-07-21T02:58:21;16.60;99.90
20929;DHT22;21895;47.072;15.132;2022-07-21T03:00:51;16.60;99.90
20929;DHT22;21895;47.072;15.132;2022-07-21T03:03:22;16.60;99.90
20929;DHT22;21895;47.072;15.132;2022-07-21T03:05:51;16.50;99.90
20929;DHT22;21895;47.072;15.132;2022-07-21T03:08:18;16.60;99.90
20929;DHT22;21895;47.072;15.132;2022-07-21T03:10:46;16.60;99.90
20929;DHT22;21895;47.072;15.132;2022-07-21T03:13:13;16.50;99.90
20929;DHT22;21895;47.072;15.132;2022-07-21T03:15:39;16.50;99.90
20929;DHT22;21895;47.072;15.132;2022-07-21T03:18:06;16.50;99.90
20929;DHT22;21895;47.072;15.132;2022-07-21T03:20:36;16.40;99.90
20929;DHT22;21895;47.072;15.132;2022-07-21T03:23:04;16.30;99.90
20929;DHT22;21895;47.072;15.132;2022-07-21T03:25:31;16.30;99.90
20929;DHT22;21895;47.072;15.132;2022-07-21T03:27:58;16.40;99.90
20929;DHT22;21895;47.072;15.132;2022-07-21T03:30:26;16.50;99.90
20929;DHT22;21895;47.072;15.132;2022-07-21T03:32:52;16.60;99.90
20929;DHT22;21895;47.072;15.132;2022-07-21T03:35:19;16.60;99.90
20929;DHT22;21895;47.072;15.132;2022-07-21T03:37:59;16.60;99.90
20929;DHT22;21895;47.072;15.132;2022-07-21T03:40:28;16.50;99.90
20929;DHT22;21895;47.072;15.132;2022-07-21T03:42:58;16.60;99.90
20929;DHT22;21895;47.072;15.132;2022-07-21T03:45:27;16.70;99.90
20929;DHT22;21895;47.072;15.132;2022-07-21T03:47:57;16.70;99.90
20929;DHT22;21895;47.072;15.132;2022-07-21T03:50:28;16.90;99.90
20929;DHT22;21895;47.072;15.132;2022-07-21T03:52:56;16.80;99.90
20929;DHT22;21895;47.072;15.132;2022-07-21T03:55:22;16.70;99.90
20929;DHT22;21895;47.072;15.132;2022-07-21T03:57:55;16.80;99.90
20929;DHT22;21895;47.072;15.132;2022-07-21T04:00:28;16.90;99.90
20929;DHT22;21895;47.072;15.132;2022-07-21T04:02:57;17.00;99.90
20929;DHT22;21895;47.072;15.132;2022-07-21T04:05:25;17.00;99.90
20929;DHT22;21895;47.072;15.132;2022-07-21T04:07:53;17.00;99.90
20929;DHT22;21895;47.072;15.132;2022-07-21T04:10:25;17.00;99.90
20929;DHT22;21895;47.072;15.132;2022-07-21T04:12:54;17.10;99.90
20929;DHT22;21895;47.072;15.132;2022-07-21T04:15:22;17.10;99.90
20929;DHT22;21895;47.072;15.132;2022-07-21T04:17:49;17.00;99.90
20929;DHT22;21895;47.072;15.132;2022-07-21T04:20:15;17.10;99.90
20929;DHT22;21895;47.072;15.132;2022-07-21T04:22:44;17.20;99.90
20929;DHT22;21895;47.072;15.132;2022-07-21T04:25:13;17.30;99.90
20929;DHT22;21895;47.072;15.132;2022-07-21T04:27:40;17.40;99.90
20929;DHT22;21895;47.072;15.132;2022-07-21T04:30:10;17.60;99.90
20929;DHT22;21895;47.072;15.132;2022-07-21T04:32:38;17.70;99.90
20929;DHT22;21895;47.072;15.132;2022-07-21T04:35:07;17.80;99.90
20929;DHT22;21895;47.072;15.132;2022-07-21T04:37:35;17.90;99.90
20929;DHT22;21895;47.072;15.132;2022-07-21T04:40:05;18.00;99.90
20929;DHT22;21895;47.072;15.132;2022-07-21T04:42:34;18.10;99.90
20929;DHT22;21895;47.072;15.132;2022-07-21T04:45:02;18.30;99.90
20929;DHT22;21895;47.072;15.132;2022-07-21T04:47:30;18.40;99.90
20929;DHT22;21895;47.072;15.132;2022-07-21T04:49:56;18.60;99.90
20929;DHT22;21895;47.072;15.132;2022-07-21T04:52:23;18.70;99.90
20929;DHT22;21895;47.072;15.132;2022-07-21T04:54:49;18.80;99.90
20929;DHT22;21895;47.072;15.132;2022-07-21T04:57:16;18.80;99.90
20929;DHT22;21895;47.072;15.132;2022-07-21T04:59:42;19.00;99.90
20929;DHT22;21895;47.072;15.132;2022-07-21T05:02:09;19.10;99.90
20929;DHT22;21895;47.072;15.132;2022-07-21T05:04:36;19.20;99.90
20929;DHT22;21895;47.072;15.132;2022-07-21T05:07:02;19.30;99.90
20929;DHT22;21895;47.072;15.132;2022-07-21T05:09:29;19.60;99.90
20929;DHT22;21895;47.072;15.132;2022-07-21T05:11:55;19.90;99.90
20929;DHT22;21895;47.072;15.132;2022-07-21T05:14:22;19.90;99.90
20929;DHT22;21895;47.072;15.132;2022-07-21T05:16:48;20.00;99.90
20929;DHT22;21895;47.072;15.132;2022-07-21T05:19:15;20.10;99.90
20929;DHT22;21895;47.072;15.132;2022-07-21T05:21:42;20.10;99.90
20929;DHT22;21895;47.072;15.132;2022-07-21T05:24:08;20.10;99.90
20929;DHT22;21895;47.072;15.132;2022-07-21T05:26:35;20.40;99.90
20929;DHT22;21895;47.072;15.132;2022-07-21T05:29:02;20.70;99.90
20929;DHT22;21895;47.072;15.132;2022-07-21T05:31:29;21.20;99.90
20929;DHT22;21895;47.072;15.132;2022-07-21T05:33:56;21.50;99.60
20929;DHT22;21895;47.072;15.132;2022-07-21T05:36:22;21.70;99.70
20929;DHT22;21895;47.072;15.132;2022-07-21T05:38:49;21.80;99.50
20929;DHT22;21895;47.072;15.132;2022-07-21T05:41:16;21.80;99.10
20929;DHT22;21895;47.072;15.132;2022-07-21T05:43:42;21.90;99.10
20929;DHT22;21895;47.072;15.132;2022-07-21T05:46:09;22.40;97.00
20929;DHT22;21895;47.072;15.132;2022-07-21T05:48:35;22.50;97.00
20929;DHT22;21895;47.072;15.132;2022-07-21T05:51:02;22.80;96.60
20929;DHT22;21895;47.072;15.132;2022-07-21T05:53:29;23.00;95.80
20929;DHT22;21895;47.072;15.132;2022-07-21T05:55:55;23.20;95.70
20929;DHT22;21895;47.072;15.132;2022-07-21T05:58:25;23.40;95.10
20929;DHT22;21895;47.072;15.132;2022-07-21T06:00:52;23.90;95.20
20929;DHT22;21895;47.072;15.132;2022-07-21T06:03:41;24.20;94.50
20929;DHT22;21895;47.072;15.132;2022-07-21T06:06:11;24.20;94.40
20929;DHT22;21895;47.072;15.132;2022-07-21T06:08:41;24.60;93.40
20929;DHT22;21895;47.072;15.132;2022-07-21T06:11:10;24.60;93.70
20929;DHT22;21895;47.072;15.132;2022-07-21T06:13:39;24.80;93.70
20929;DHT22;21895;47.072;15.132;2022-07-21T06:16:07;24.90;93.60
20929;DHT22;21895;47.072;15.132;2022-07-21T06:18:34;24.80;93.60
20929;DHT22;21895;47.072;15.132;2022-07-21T06:21:00;25.00;93.30
20929;DHT22;21895;47.072;15.132;2022-07-21T06:23:27;25.00;93.00
20929;DHT22;21895;47.072;15.132;2022-07-21T06:25:55;25.00;92.90
20929;DHT22;21895;47.072;15.132;2022-07-21T06:28:22;25.00;92.20
20929;DHT22;21895;47.072;15.132;2022-07-21T06:30:49;25.10;92.60
20929;DHT22;21895;47.072;15.132;2022-07-21T06:33:16;25.40;93.60
20929;DHT22;21895;47.072;15.132;2022-07-21T06:35:43;25.80;93.80
20929;DHT22;21895;47.072;15.132;2022-07-21T06:38:10;25.90;93.60
20929;DHT22;21895;47.072;15.132;2022-07-21T06:40:39;26.10;93.80
20929;DHT22;21895;47.072;15.132;2022-07-21T06:43:06;26.20;93.80
20929;DHT22;21895;47.072;15.132;2022-07-21T06:45:53;26.50;92.40
20929;DHT22;21895;47.072;15.132;2022-07-21T06:48:20;26.50;93.00
20929;DHT22;21895;47.072;15.132;2022-07-21T06:50:48;26.60;92.60
20929;DHT22;21895;47.072;15.132;2022-07-21T06:53:14;26.60;92.40
20929;DHT22;21895;47.072;15.132;2022-07-21T06:55:41;26.80;91.70
20929;DHT22;21895;47.072;15.132;2022-07-21T06:58:16;27.10;91.70
20929;DHT22;21895;47.072;15.132;2022-07-21T07:00:45;27.40;91.20
20929;DHT22;21895;47.072;15.132;2022-07-21T07:03:14;27.50;91.70
20929;DHT22;21895;47.072;15.132;2022-07-21T07:05:42;27.90;91.00
20929;DHT22;21895;47.072;15.132;2022-07-21T07:08:10;28.10;89.10
20929;DHT22;21895;47.072;15.132;2022-07-21T07:10:42;28.10;88.90
20929;DHT22;21895;47.072;15.132;2022-07-21T07:13:12;28.30;87.60
20929;DHT22;21895;47.072;15.132;2022-07-21T07:16:18;28.30;88.60
20929;DHT22;21895;47.072;15.132;2022-07-21T07:18:44;28.50;87.90
20929;DHT22;21895;47.072;15.132;2022-07-21T07:21:11;28.70;85.60
20929;DHT22;21895;47.072;15.132;2022-07-21T07:23:38;28.80;84.30
20929;DHT22;21895;47.072;15.132;2022-07-21T07:26:05;28.80;84.80
20929;DHT22;21895;47.072;15.132;2022-07-21T07:31:09;28.90;85.00
20929;DHT22;21895;47.072;15.132;2022-07-21T07:33:36;29.40;79.90
20929;DHT22;21895;47.072;15.132;2022-07-21T07:36:03;29.50;80.40
20929;DHT22;21895;47.072;15.132;2022-07-21T07:38:30;29.70;81.70
20929;DHT22;21895;47.072;15.132;2022-07-21T07:40:56;29.60;81.10
20929;DHT22;21895;47.072;15.132;2022-07-21T07:43:23;29.70;80.90
20929;DHT22;21895;47.072;15.132;2022-07-21T07:45:49;29.60;80.20
20929;DHT22;21895;47.072;15.132;2022-07-21T07:48:16;29.70;78.80
20929;DHT22;21895;47.072;15.132;2022-07-21T07:50:43;29.80;79.40
20929;DHT22;21895;47.072;15.132;2022-07-21T07:53:09;30.00;79.70
20929;DHT22;21895;47.072;15.132;2022-07-21T07:55:38;30.20;76.90
20929;DHT22;21895;47.072;15.132;2022-07-21T07:58:05;30.50;77.00
20929;DHT22;21895;47.072;15.132;2022-07-21T08:00:31;30.50;77.50
20929;DHT22;21895;47.072;15.132;2022-07-21T08:03:28;30.70;75.20
20929;DHT22;21895;47.072;15.132;2022-07-21T08:05:56;30.60;71.30
20929;DHT22;21895;47.072;15.132;2022-07-21T08:08:28;30.70;74.10
20929;DHT22;21895;47.072;15.132;2022-07-21T08:10:56;30.80;73.70
20929;DHT22;21895;47.072;15.132;2022-07-21T08:13:23;31.00;70.30
20929;DHT22;21895;47.072;15.132;2022-07-21T08:15:53;31.00;73.10
20929;DHT22;21895;47.072;15.132;2022-07-21T08:18:19;31.00;70.70
20929;DHT22;21895;47.072;15.132;2022-07-21T08:20:47;31.10;70.90
20929;DHT22;21895;47.072;15.132;2022-07-21T08:23:15;31.40;73.20
20929;DHT22;21895;47.072;15.132;2022-07-21T08:25:43;31.50;70.50
20929;DHT22;21895;47.072;15.132;2022-07-21T08:28:10;31.50;71.30
20929;DHT22;21895;47.072;15.132;2022-07-21T08:30:37;31.60;71.00
20929;DHT22;21895;47.072;15.132;2022-07-21T08:33:04;31.50;70.40
20929;DHT22;21895;47.072;15.132;2022-07-21T08:35:31;31.60;69.30
20929;DHT22;21895;47.072;15.132;2022-07-21T08:38:03;31.60;70.80
20929;DHT22;21895;47.072;15.132;2022-07-21T08:40:35;31.70;70.40
20929;DHT22;21895;47.072;15.132;2022-07-21T08:43:04;31.90;71.50
20929;DHT22;21895;47.072;15.132;2022-07-21T08:45:32;32.00;71.00
20929;DHT22;21895;47.072;15.132;2022-07-21T08:47:59;32.10;70.30
20929;DHT22;21895;47.072;15.132;2022-07-21T08:50:29;32.20;71.70
20929;DHT22;21895;47.072;15.132;2022-07-21T08:52:58;32.30;71.10
20929;DHT22;21895;47.072;15.132;2022-07-21T08:55:31;32.30;69.00
20929;DHT22;21895;47.072;15.132;2022-07-21T08:58:00;32.20;70.40
20929;DHT22;21895;47.072;15.132;2022-07-21T09:00:34;32.40;68.60
20929;DHT22;21895;47.072;15.132;2022-07-21T09:03:35;32.50;67.20
20929;DHT22;21895;47.072;15.132;2022-07-21T09:06:13;32.50;68.60
20929;DHT22;21895;47.072;15.132;2022-07-21T09:08:59;32.60;67.90
20929;DHT22;21895;47.072;15.132;2022-07-21T09:11:29;32.70;66.90
20929;DHT22;21895;47.072;15.132;2022-07-21T09:14:10;32.60;66.80
20929;DHT22;21895;47.072;15.132;2022-07-21T09:16:46;32.80;66.60
20929;DHT22;21895;47.072;15.132;2022-07-21T09:19:37;33.00;65.90
20929;DHT22;21895;47.072;15.132;2022-07-21T09:22:07;33.20;65.10
20929;DHT22;21895;47.072;15.132;2022-07-21T09:24:38;33.20;66.00
20929;DHT22;21895;47.072;15.132;2022-07-21T09:27:26;33.20;65.70
20929;DHT22;21895;47.072;15.132;2022-07-21T09:29:57;33.10;66.50
20929;DHT22;21895;47.072;15.132;2022-07-21T09:32:34;33.40;64.90
20929;DHT22;21895;47.072;15.132;2022-07-21T09:35:09;33.50;64.30
20929;DHT22;21895;47.072;15.132;2022-07-21T09:37:40;33.40;63.70
20929;DHT22;21895;47.072;15.132;2022-07-21T09:40:10;33.40;64.60
20929;DHT22;21895;47.072;15.132;2022-07-21T09:42:49;33.30;62.50
20929;DHT22;21895;47.072;15.132;2022-07-21T09:45:17;33.30;65.30
20929;DHT22;21895;47.072;15.132;2022-07-21T09:47:45;33.40;62.80
20929;DHT22;21895;47.072;15.132;2022-07-21T09:50:14;33.60;63.80
20929;DHT22;21895;47.072;15.132;2022-07-21T09:52:55;33.60;63.30
20929;DHT22;21895;47.072;15.132;2022-07-21T09:55:25;33.40;64.40
20929;DHT22;21895;47.072;15.132;2022-07-21T09:57:55;33.50;63.00
20929;DHT22;21895;47.072;15.132;2022-07-21T10:00:24;33.50;64.70
20929;DHT22;21895;47.072;15.132;2022-07-21T10:02:50;33.40;65.30
20929;DHT22;21895;47.072;15.132;2022-07-21T10:05:20;33.50;66.20
20929;DHT22;21895;47.072;15.132;2022-07-21T10:07:55;33.70;65.80
20929;DHT22;21895;47.072;15.132;2022-07-21T10:10:23;33.60;67.50
20929;DHT22;21895;47.072;15.132;2022-07-21T10:13:36;33.50;67.40
20929;DHT22;21895;47.072;15.132;2022-07-21T10:16:04;33.60;66.80
20929;DHT22;21895;47.072;15.132;2022-07-21T10:19:20;33.60;66.20
20929;DHT22;21895;47.072;15.132;2022-07-21T10:25:05;33.60;67.70
20929;DHT22;21895;47.072;15.132;2022-07-21T10:27:33;33.60;65.90
20929;DHT22;21895;47.072;15.132;2022-07-21T10:30:45;33.80;64.80
20929;DHT22;21895;47.072;15.132;2022-07-21T10:33:19;33.70;64.40
20929;DHT22;21895;47.072;15.132;2022-07-21T10:35:49;33.60;65.40
20929;DHT22;21895;47.072;15.132;2022-07-21T10:38:33;33.60;64.50
20929;DHT22;21895;47.072;15.132;2022-07-21T10:41:04;33.60;65.60
20929;DHT22;21895;47.072;15.132;2022-07-21T10:43:41;33.60;64.40
20929;DHT22;21895;47.072;15.132;2022-07-21T10:46:32;33.80;62.00
20929;DHT22;21895;47.072;15.132;2022-07-21T10:49:01;33.70;62.90
20929;DHT22;21895;47.072;15.132;2022-07-21T10:51:28;33.70;62.10
20929;DHT22;21895;47.072;15.132;2022-07-21T10:54:19;33.70;64.20
20929;DHT22;21895;47.072;15.132;2022-07-21T10:56:47;33.80;62.50
20929;DHT22;21895;47.072;15.132;2022-07-21T10:59:13;33.60;62.30
20929;DHT22;21895;47.072;15.132;2022-07-21T11:01:40;33.40;60.80
20929;DHT22;21895;47.072;15.132;2022-07-21T11:04:12;33.50;61.40
20929;DHT22;21895;47.072;15.132;2022-07-21T11:06:43;33.70;60.40
20929;DHT22;21895;47.072;15.132;2022-07-21T11:09:15;33.70;61.70
20929;DHT22;21895;47.072;15.132;2022-07-21T11:12:03;33.60;59.90
20929;DHT22;21895;47.072;15.132;2022-07-21T11:14:42;33.60;61.00
20929;DHT22;21895;47.072;15.132;2022-07-21T11:17:24;33.80;62.10
20929;DHT22;21895;47.072;15.132;2022-07-21T11:19:54;33.70;61.10
20929;DHT22;21895;47.072;15.132;2022-07-21T11:22:28;33.70;60.50
20929;DHT22;21895;47.072;15.132;2022-07-21T11:25:01;33.60;60.40
20929;DHT22;21895;47.072;15.132;2022-07-21T11:27:37;33.70;60.30
20929;DHT22;21895;47.072;15.132;2022-07-21T11:30:08;33.80;60.60
20929;DHT22;21895;47.072;15.132;2022-07-21T11:32:36;33.60;62.30
20929;DHT22;21895;47.072;15.132;2022-07-21T11:35:05;33.60;61.10
20929;DHT22;21895;47.072;15.132;2022-07-21T11:37:45;33.60;60.70
20929;DHT22;21895;47.072;15.132;2022-07-21T11:40:14;33.70;61.00
20929;DHT22;21895;47.072;15.132;2022-07-21T11:42:44;33.80;60.10
20929;DHT22;21895;47.072;15.132;2022-07-21T11:45:14;33.70;60.80
20929;DHT22;21895;47.072;15.132;2022-07-21T11:47:41;33.70;60.00
20929;DHT22;21895;47.072;15.132;2022-07-21T11:50:16;33.60;60.90
20929;DHT22;21895;47.072;15.132;2022-07-21T11:52:43;33.50;60.40
20929;DHT22;21895;47.072;15.132;2022-07-21T11:55:10;33.60;60.00
20929;DHT22;21895;47.072;15.132;2022-07-21T11:57:45;33.70;60.00
20929;DHT22;21895;47.072;15.132;2022-07-21T12:00:16;33.70;61.70
20929;DHT22;21895;47.072;15.132;2022-07-21T12:02:48;33.70;60.80
20929;DHT22;21895;47.072;15.132;2022-07-21T12:05:16;33.60;60.50
20929;DHT22;21895;47.072;15.132;2022-07-21T12:07:47;33.60;60.70
20929;DHT22;21895;47.072;15.132;2022-07-21T12:10:25;33.60;59.90
20929;DHT22;21895;47.072;15.132;2022-07-21T12:12:59;33.60;60.30
20929;DHT22;21895;47.072;15.132;2022-07-21T12:15:29;33.60;60.40
20929;DHT22;21895;47.072;15.132;2022-07-21T12:18:05;33.40;60.60
20929;DHT22;21895;47.072;15.132;2022-07-21T12:20:41;33.40;60.50
20929;DHT22;21895;47.072;15.132;2022-07-21T12:23:26;33.60;60.00
20929;DHT22;21895;47.072;15.132;2022-07-21T12:25:56;33.60;61.70
20929;DHT22;21895;47.072;15.132;2022-07-21T12:28:46;33.60;59.80
20929;DHT22;21895;47.072;15.132;2022-07-21T12:31:17;33.50;61.50
20929;DHT22;21895;47.072;15.132;2022-07-21T12:33:50;33.40;61.20
20929;DHT22;21895;47.072;15.132;2022-07-21T12:36:50;33.50;60.20
20929;DHT22;21895;47.072;15.132;2022-07-21T12:39:22;33.60;60.00
20929;DHT22;21895;47.072;15.132;2022-07-21T12:42:11;33.60;59.90
20929;DHT22;21895;47.072;15.132;2022-07-21T12:44:54;33.50;59.80
20929;DHT22;21895;47.072;15.132;2022-07-21T12:47:21;33.50;60.20
20929;DHT22;21895;47.072;15.132;2022-07-21T12:50:04;33.60;61.10
20929;DHT22;21895;47.072;15.132;2022-07-21T12:52:39;33.50;60.30
20929;DHT22;21895;47.072;15.132;2022-07-21T12:55:07;33.40;60.10
20929;DHT22;21895;47.072;15.132;2022-07-21T12:57:34;33.30;60.10
20929;DHT22;21895;47.072;15.132;2022-07-21T13:00:01;33.40;60.20
20929;DHT22;21895;47.072;15.132;2022-07-21T13:02:29;33.40;60.50
20929;DHT22;21895;47.072;15.132;2022-07-21T13:04:56;33.40;59.10
20929;DHT22;21895;47.072;15.132;2022-07-21T13:07:22;33.50;59.90
20929;DHT22;21895;47.072;15.132;2022-07-21T13:09:49;33.40;60.50
20929;DHT22;21895;47.072;15.132;2022-07-21T13:12:15;33.50;59.80
20929;DHT22;21895;47.072;15.132;2022-07-21T13:14:42;33.50;59.60
20929;DHT22;21895;47.072;15.132;2022-07-21T13:17:09;33.20;59.90
20929;DHT22;21895;47.072;15.132;2022-07-21T13:19:35;33.30;60.00
20929;DHT22;21895;47.072;15.132;2022-07-21T13:22:03;33.30;59.60
20929;DHT22;21895;47.072;15.132;2022-07-21T13:24:30;33.30;60.30
20929;DHT22;21895;47.072;15.132;2022-07-21T13:26:57;33.30;60.70
20929;DHT22;21895;47.072;15.132;2022-07-21T13:29:24;33.20;59.60
20929;DHT22;21895;47.072;15.132;2022-07-21T13:31:50;33.20;61.50
20929;DHT22;21895;47.072;15.132;2022-07-21T13:34:17;33.30;60.90
20929;DHT22;21895;47.072;15.132;2022-07-21T13:36:44;33.40;59.60
20929;DHT22;21895;47.072;15.132;2022-07-21T13:39:11;33.50;59.40
20929;DHT22;21895;47.072;15.132;2022-07-21T13:42:57;33.50;59.40
20929;DHT22;21895;47.072;15.132;2022-07-21T13:45:45;33.60;60.90
20929;DHT22;21895;47.072;15.132;2022-07-21T13:48:12;33.70;59.40
20929;DHT22;21895;47.072;15.132;2022-07-21T13:50:38;33.70;59.90
20929;DHT22;21895;47.072;15.132;2022-07-21T13:53:05;33.70;59.10
20929;DHT22;21895;47.072;15.132;2022-07-21T13:55:31;33.60;59.40
20929;DHT22;21895;47.072;15.132;2022-07-21T13:57:58;33.60;60.20
20929;DHT22;21895;47.072;15.132;2022-07-21T14:00:26;33.50;59.60
20929;DHT22;21895;47.072;15.132;2022-07-21T14:02:52;33.40;61.80
20929;DHT22;21895;47.072;15.132;2022-07-21T14:05:19;33.30;60.10
20929;DHT22;21895;47.072;15.132;2022-07-21T14:07:45;33.40;60.70
20929;DHT22;21895;47.072;15.132;2022-07-21T14:10:12;33.50;59.40
20929;DHT22;21895;47.072;15.132;2022-07-21T14:12:39;33.60;61.30
20929;DHT22;21895;47.072;15.132;2022-07-21T14:15:09;33.60;60.50
20929;DHT22;21895;47.072;15.132;2022-07-21T14:17:36;33.40;61.30
20929;DHT22;21895;47.072;15.132;2022-07-21T14:20:03;33.30;62.50
20929;DHT22;21895;47.072;15.132;2022-07-21T14:22:30;33.40;62.40
20929;DHT22;21895;47.072;15.132;2022-07-21T14:24:57;33.50;61.00
20929;DHT22;21895;47.072;15.132;2022-07-21T14:27:42;33.40;60.20
20929;DHT22;21895;47.072;15.132;2022-07-21T14:30:10;33.20;61.80
20929;DHT22;21895;47.072;15.132;2022-07-21T14:32:37;33.40;61.50
20929;DHT22;21895;47.072;15.132;2022-07-21T14:35:04;33.50;60.80
20929;DHT22;21895;47.072;15.132;2022-07-21T14:37:31;33.40;60.80
20929;DHT22;21895;47.072;15.132;2022-07-21T14:39:58;33.30;61.20
20929;DHT22;21895;47.072;15.132;2022-07-21T14:42:25;33.40;60.60
20929;DHT22;21895;47.072;15.132;2022-07-21T14:44:51;33.30;60.30
20929;DHT22;21895;47.072;15.132;2022-07-21T14:47:18;33.20;60.90
20929;DHT22;21895;47.072;15.132;2022-07-21T14:49:44;33.40;61.40
20929;DHT22;21895;47.072;15.132;2022-07-21T14:52:11;33.30;60.00
20929;DHT22;21895;47.072;15.132;2022-07-21T14:54:38;33.10;60.90
20929;DHT22;21895;47.072;15.132;2022-07-21T14:57:04;32.90;59.90
20929;DHT22;21895;47.072;15.132;2022-07-21T14:59:36;32.80;60.40
20929;DHT22;21895;47.072;15.132;2022-07-21T15:02:03;32.60;61.20
20929;DHT22;21895;47.072;15.132;2022-07-21T15:04:36;32.70;61.10
20929;DHT22;21895;47.072;15.132;2022-07-21T15:07:03;32.60;60.90
20929;DHT22;21895;47.072;15.132;2022-07-21T15:09:29;32.60;61.20
20929;DHT22;21895;47.072;15.132;2022-07-21T15:11:56;32.50;61.00
20929;DHT22;21895;47.072;15.132;2022-07-21T15:14:22;32.40;62.20
20929;DHT22;21895;47.072;15.132;2022-07-21T15:16:49;32.20;63.50
20929;DHT22;21895;47.072;15.132;2022-07-21T15:19:16;32.10;63.70
20929;DHT22;21895;47.072;15.132;2022-07-21T15:21:42;32.20;63.20
20929;DHT22;21895;47.072;15.132;2022-07-21T15:24:10;32.10;63.70
20929;DHT22;21895;47.072;15.132;2022-07-21T15:26:36;32.10;63.40
20929;DHT22;21895;47.072;15.132;2022-07-21T15:29:03;32.10;63.10
20929;DHT22;21895;47.072;15.132;2022-07-21T15:31:30;32.10;62.90
20929;DHT22;21895;47.072;15.132;2022-07-21T15:33:58;32.10;64.20
20929;DHT22;21895;47.072;15.132;2022-07-21T15:36:27;32.10;63.90
20929;DHT22;21895;47.072;15.132;2022-07-21T15:38:55;32.00;63.90